Time;durP1;ratioP1;P1;durP2;ratioP2;P2;SDS_P1;SDS_P2;PMS_P1;PMS_P2;Temp;Humidity;BMP_temperature;BMP_pressure;BME280_temperature;BME280_humidity;BME280_pressure;Samples;Min_cycle;Max_cycle;Signal;HPM_P1;HPM_P2
2023/12/17 00:01:06;;;;;;;27.15;16.25;;;9.10;99.90;;;10.17;100.00;102717.63;5069516;28;20422;-79
2023/12/17 00:03:32;;;;;;;21.90;14.68;;;9.10;99.90;;;10.10;100.00;102720.19;5069470;28;20118;-79
2023/12/17 00:05:57;;;;;;;21.30;15.30;;;9.10;99.90;;;10.18;100.00;102717.47;5069944;28;20483;-80
2023/12/17 00:08:23;;;;;;;25.30;16.35;;;9.20;99.90;;;10.18;100.00;102724.78;5060691;28;20093;-79
2023/12/17 00:10:49;;;;;;;21.23;15.35;;;9.20;99.90;;;10.15;100.00;102722.41;5070091;28;20063;-80
2023/12/17 00:13:16;;;;;;;21.98;14.00;;;9.20;99.90;;;10.21;100.00;102703.50;5046116;28;20085;-79
2023/12/17 00:15:42;;;;;;;21.27;14.77;;;9.20;99.90;;;10.07;100.00;102707.72;5061362;28;20476;-79
2023/12/17 00:18:07;;;;;;;21.17;14.20;;;9.20;99.90;;;10.12;100.00;102707.22;5067641;28;20037;-79
2023/12/17 00:20:33;;;;;;;22.38;15.18;;;9.20;99.90;;;10.06;100.00;102714.19;5069818;28;20036;-79
2023/12/17 00:22:59;;;;;;;24.33;15.68;;;9.20;99.90;;;9.99;100.00;102696.78;5069433;28;20071;-79
2023/12/17 00:25:24;;;;;;;21.85;14.90;;;9.20;99.90;;;10.12;100.00;102706.34;5070137;28;20043;-80
2023/12/17 00:27:50;;;;;;;25.17;15.68;;;9.20;99.90;;;10.18;100.00;102708.44;5069714;28;20029;-79
2023/12/17 00:30:16;;;;;;;20.20;14.13;;;9.20;99.90;;;10.17;100.00;102715.78;5069911;28;20458;-79
2023/12/17 00:32:42;;;;;;;20.48;14.73;;;9.20;99.90;;;10.04;100.00;102699.00;5061641;28;20075;-79
2023/12/17 00:35:08;;;;;;;23.00;14.50;;;9.30;99.90;;;10.23;100.00;102703.34;5068923;28;20094;-79
2023/12/17 00:37:33;;;;;;;20.38;13.60;;;9.20;99.90;;;10.06;100.00;102705.13;5069043;28;20064;-79
2023/12/17 00:39:59;;;;;;;20.77;14.45;;;9.20;99.90;;;10.05;100.00;102695.25;5068869;28;20053;-78
2023/12/17 00:42:25;;;;;;;19.50;13.85;;;9.30;99.90;;;10.10;100.00;102708.41;5069006;28;20051;-79
2023/12/17 00:44:50;;;;;;;21.67;14.20;;;9.30;99.90;;;10.07;100.00;102704.97;5052530;28;20043;-79
2023/12/17 00:47:16;;;;;;;19.90;14.10;;;9.20;99.90;;;10.04;100.00;102707.16;5054957;28;20051;-79
2023/12/17 00:49:42;;;;;;;21.08;13.73;;;9.30;99.90;;;10.03;100.00;102713.66;5075419;28;20052;-80
2023/12/17 00:52:07;;;;;;;19.90;13.88;;;9.20;99.90;;;10.18;100.00;102716.59;5039179;28;20048;-80
2023/12/17 00:54:33;;;;;;;21.08;14.27;;;9.30;99.90;;;9.98;100.00;102721.47;5073503;28;20032;-79
2023/12/17 00:56:59;;;;;;;20.58;13.45;;;9.20;99.90;;;10.03;100.00;102702.72;5077103;28;20417;-81
2023/12/17 00:59:25;;;;;;;20.65;13.48;;;9.20;99.90;;;10.16;100.00;102714.06;5083619;28;20028;-79
2023/12/17 01:01:53;;;;;;;19.75;13.68;;;9.20;99.90;;;9.89;100.00;102707.78;5086866;28;20056;-80
2023/12/17 01:04:19;;;;;;;18.13;12.85;;;9.20;99.90;;;10.00;100.00;102719.44;5072551;28;20437;-79
2023/12/17 01:06:45;;;;;;;22.67;13.45;;;9.20;99.90;;;10.07;100.00;102704.97;5049267;28;20046;-80
2023/12/17 01:09:10;;;;;;;17.17;12.45;;;9.20;99.90;;;10.19;100.00;102702.81;5057278;28;20036;-80
2023/12/17 01:11:37;;;;;;;19.48;12.20;;;9.20;99.90;;;10.10;100.00;102695.63;5071341;28;20484;-80
2023/12/17 01:14:03;;;;;;;19.67;12.77;;;9.20;99.90;;;10.06;100.00;102707.84;5078110;28;20074;-79
2023/12/17 01:16:30;;;;;;;19.23;12.73;;;9.20;99.90;;;9.99;100.00;102707.69;5077375;28;20040;-79
2023/12/17 01:18:55;;;;;;;16.17;10.88;;;9.20;99.90;;;10.05;100.00;102708.88;5060355;28;20064;-80
2023/12/17 01:21:22;;;;;;;16.38;11.23;;;9.30;99.90;;;10.11;100.00;102716.44;5073487;28;20090;-80
2023/12/17 01:23:47;;;;;;;15.65;10.63;;;9.30;99.90;;;9.98;100.00;102700.53;5072658;28;20040;-81
2023/12/17 01:26:22;;;;;;;15.52;10.85;;;9.20;99.90;;;10.05;100.00;102689.78;5073962;28;20459;-80
2023/12/17 01:28:49;;;;;;;16.33;10.50;;;9.20;99.90;;;9.93;100.00;102676.44;5080582;28;20060;-80
2023/12/17 01:31:15;;;;;;;16.17;11.20;;;9.20;99.90;;;9.97;100.00;102671.53;5075220;28;20086;-79
2023/12/17 01:33:41;;;;;;;14.38;9.98;;;9.20;99.90;;;9.82;100.00;102654.94;5075444;28;20124;-79
2023/12/17 01:36:07;;;;;;;12.75;9.18;;;9.20;99.90;;;9.88;100.00;102676.09;5072720;28;20092;-79
2023/12/17 01:38:33;;;;;;;13.07;8.93;;;9.20;99.90;;;9.91;100.00;102673.03;5071748;28;20051;-80
2023/12/17 01:40:59;;;;;;;14.05;9.55;;;9.20;99.90;;;9.95;100.00;102695.41;5082044;28;20507;-79
2023/12/17 01:43:25;;;;;;;13.77;9.18;;;9.20;99.90;;;9.89;100.00;102685.97;5040519;28;20423;-79
2023/12/17 01:45:53;;;;;;;15.75;9.27;;;9.30;99.90;;;9.96;100.00;102690.78;5067084;28;20116;-79
2023/12/17 01:48:20;;;;;;;14.50;8.88;;;9.30;99.90;;;10.02;100.00;102684.66;5078022;28;20051;-79
2023/12/17 01:50:46;;;;;;;12.63;7.90;;;9.30;99.90;;;9.94;100.00;102688.19;5079844;28;20035;-78
2023/12/17 01:53:14;;;;;;;11.40;7.85;;;9.30;99.90;;;9.91;100.00;102686.69;5075136;28;20028;-78
2023/12/17 01:55:40;;;;;;;;;;;9.30;99.90;;;10.07;100.00;102683.16;5072172;28;20032;-80
2023/12/17 01:58:09;;;;;;;11.68;7.50;;;9.30;99.90;;;9.98;100.00;102697.78;5037305;28;19939;-79
2023/12/17 02:00:36;;;;;;;10.00;7.22;;;9.30;99.90;;;10.01;100.00;102680.22;5054632;28;20060;-79
2023/12/17 02:03:04;;;;;;;11.20;7.50;;;9.30;99.90;;;10.05;100.00;102681.59;5072270;28;20041;-79
2023/12/17 02:05:34;;;;;;;10.27;6.72;;;9.30;99.90;;;10.08;100.00;102694.94;5071965;28;20082;-78
2023/12/17 02:08:03;;;;;;;10.23;7.03;;;9.30;99.90;;;10.12;100.00;102688.13;5071811;28;20478;-79
2023/12/17 02:10:30;;;;;;;9.70;6.78;;;9.30;99.90;;;10.19;100.00;102694.63;5071754;28;20040;-79
2023/12/17 02:12:58;;;;;;;11.52;7.13;;;9.30;99.90;;;10.10;100.00;102679.28;5072240;28;20083;-80
2023/12/17 02:15:24;;;;;;;;;;;9.40;99.90;;;10.17;100.00;102685.75;5070818;28;20040;-79
2023/12/17 02:17:49;;;;;;;10.93;7.05;;;9.40;99.90;;;10.16;100.00;102694.97;5071806;28;20002;-79
2023/12/17 02:20:15;;;;;;;7.78;5.75;;;9.40;99.90;;;10.19;100.00;102691.03;5072077;28;20036;-78
2023/12/17 02:22:43;;;;;;;10.85;6.68;;;9.40;99.90;;;10.21;100.00;102689.88;5071995;28;20454;-79
2023/12/17 02:25:10;;;;;;;9.80;6.53;;;9.40;99.90;;;10.26;100.00;102693.97;5071425;28;20089;-80
2023/12/17 02:27:36;;;;;;;9.38;6.45;;;9.40;99.90;;;10.19;100.00;102710.13;5070204;28;20119;-78
2023/12/17 02:30:02;;;;;;;8.68;6.03;;;9.40;99.90;;;10.21;100.00;102697.19;5071148;28;20123;-79
2023/12/17 02:32:29;;;;;;;8.57;5.78;;;9.40;99.90;;;10.33;100.00;102709.53;5043283;28;20056;-79
2023/12/17 02:34:54;;;;;;;9.45;6.38;;;9.40;99.90;;;10.17;100.00;102688.50;5071070;28;20041;-79
2023/12/17 02:37:20;;;;;;;9.73;6.40;;;9.40;99.90;;;10.38;100.00;102700.00;5071231;28;20039;-79
2023/12/17 02:39:46;;;;;;;9.85;6.00;;;9.40;99.90;;;10.24;100.00;102701.47;5036495;28;20033;-79
2023/12/17 02:42:12;;;;;;;9.10;6.07;;;9.40;99.90;;;10.25;100.00;102703.19;5072402;28;20150;-80
2023/12/17 02:44:38;;;;;;;10.20;6.15;;;9.50;99.90;;;10.23;100.00;102708.81;5071034;28;20037;-79
2023/12/17 02:47:04;;;;;;;8.68;6.38;;;9.50;99.90;;;10.34;100.00;102704.91;5071633;28;20047;-79
2023/12/17 02:49:31;;;;;;;10.65;6.35;;;9.50;99.90;;;10.28;100.00;102698.25;5071227;28;20036;-79
2023/12/17 02:51:57;;;;;;;10.05;7.50;;;9.50;99.90;;;10.17;100.00;102693.94;5070360;28;20399;-79
2023/12/17 02:54:23;;;;;;;10.75;7.13;;;9.50;99.90;;;10.18;100.00;102701.13;5072047;28;20036;-79
2023/12/17 02:56:51;;;;;;;11.05;7.43;;;9.50;99.90;;;10.21;100.00;102694.47;5043450;28;20056;-80
2023/12/17 02:59:16;;;;;;;10.35;7.40;;;9.50;99.90;;;10.21;100.00;102713.56;5065762;28;20492;-78
2023/12/17 03:01:43;;;;;;;10.63;7.78;;;9.50;99.90;;;10.20;100.00;102699.06;5074628;28;20083;-80
2023/12/17 03:04:10;;;;;;;11.10;7.72;;;9.50;99.90;;;10.48;100.00;102689.84;5070856;28;20041;-80
2023/12/17 03:06:40;;;;;;;9.80;7.17;;;9.50;99.90;;;10.38;100.00;102702.72;5069652;28;20154;-80
2023/12/17 03:09:06;;;;;;;10.90;7.90;;;9.50;99.90;;;10.36;100.00;102692.81;5070620;28;20028;-79
2023/12/17 03:11:32;;;;;;;9.88;7.50;;;9.50;99.90;;;10.28;100.00;102681.88;5070356;28;20074;-79
2023/12/17 03:13:58;;;;;;;9.55;6.90;;;9.50;99.90;;;10.33;100.00;102684.97;5075323;28;20491;-78
2023/12/17 03:16:26;;;;;;;10.23;6.95;;;9.50;99.90;;;10.33;100.00;102690.44;5066460;28;20128;-78
2023/12/17 03:18:52;;;;;;;10.82;7.80;;;9.40;99.90;;;10.38;100.00;102673.56;5077220;28;20047;-80
2023/12/17 03:21:19;;;;;;;11.07;7.57;;;9.40;99.90;;;10.32;100.00;102691.44;5038464;28;20491;-80
2023/12/17 03:23:45;;;;;;;10.93;7.90;;;9.40;99.90;;;10.30;100.00;102676.25;5070502;28;20088;-79
2023/12/17 03:26:11;;;;;;;11.13;8.35;;;9.50;99.90;;;10.43;100.00;102679.41;5076353;28;20040;-80
2023/12/17 03:28:36;;;;;;;10.65;7.88;;;9.40;99.90;;;10.31;100.00;102686.13;5047401;28;20037;-79
2023/12/17 03:31:02;;;;;;;10.65;7.60;;;9.50;99.90;;;10.15;100.00;102663.25;5086380;28;20096;-80
2023/12/17 03:33:28;;;;;;;10.85;7.90;;;9.50;99.90;;;10.29;100.00;102666.34;5071150;28;20074;-80
2023/12/17 03:35:54;;;;;;;10.63;7.45;;;9.50;99.90;;;10.22;100.00;102663.47;5072931;28;20445;-79
2023/12/17 03:38:20;;;;;;;10.57;6.90;;;9.50;99.90;;;10.34;100.00;102664.84;5070304;28;20044;-80
2023/12/17 03:40:46;;;;;;;10.70;7.47;;;9.50;99.90;;;10.28;100.00;102649.16;5079065;28;20096;-80
2023/12/17 03:43:13;;;;;;;10.63;7.07;;;9.50;99.90;;;10.40;100.00;102657.91;5071230;28;20503;-79
2023/12/17 03:45:39;;;;;;;11.82;7.18;;;9.40;99.90;;;10.31;100.00;102634.31;5072872;28;20386;-80
2023/12/17 03:48:05;;;;;;;12.18;7.40;;;9.40;99.90;;;10.33;100.00;102635.88;5067614;28;20044;-80
2023/12/17 03:50:31;;;;;;;11.60;7.80;;;9.40;99.90;;;10.41;100.00;102643.25;5070682;28;20033;-80
2023/12/17 03:52:57;;;;;;;10.80;7.20;;;9.50;99.90;;;10.33;100.00;102622.22;5076309;28;20039;-80
2023/12/17 03:55:22;;;;;;;10.95;7.43;;;9.50;99.90;;;10.28;100.00;102648.28;5069281;28;20116;-79
2023/12/17 03:57:48;;;;;;;11.95;7.57;;;9.50;99.90;;;10.43;100.00;102643.94;5069665;28;20039;-79
2023/12/17 04:00:15;;;;;;;11.05;7.65;;;9.40;99.90;;;10.42;100.00;102631.31;5069399;28;20036;-80
2023/12/17 04:02:41;;;;;;;9.88;6.90;;;9.40;99.90;;;10.27;100.00;102639.25;5068033;28;20434;-79
2023/12/17 04:05:08;;;;;;;9.95;7.38;;;9.40;99.90;;;10.35;100.00;102638.44;5068767;28;20041;-80
2023/12/17 04:07:34;;;;;;;11.27;7.65;;;9.50;99.90;;;10.19;100.00;102629.16;5068377;28;20036;-80
2023/12/17 04:10:02;;;;;;;10.93;8.23;;;9.50;99.90;;;10.30;100.00;102635.31;5069399;28;20036;-79
2023/12/17 04:12:27;;;;;;;9.75;7.05;;;9.50;99.90;;;10.35;100.00;102631.09;5068954;28;20710;-79
2023/12/17 04:14:53;;;;;;;11.30;8.25;;;9.40;99.90;;;10.44;100.00;102633.84;5040081;28;20048;-80
2023/12/17 04:17:19;;;;;;;11.18;7.63;;;9.40;99.90;;;10.40;100.00;102630.63;5070356;28;20036;-80
2023/12/17 04:19:45;;;;;;;10.02;7.60;;;9.40;99.90;;;10.22;100.00;102617.94;5069052;28;20507;-78
2023/12/17 04:22:11;;;;;;;10.75;7.38;;;9.40;99.90;;;10.29;100.00;102625.44;5040052;28;20228;-80
2023/12/17 04:24:37;;;;;;;10.98;8.02;;;9.40;99.90;;;10.15;100.00;102614.16;5068725;28;20032;-80
2023/12/17 04:27:03;;;;;;;11.55;8.25;;;9.40;99.90;;;10.27;100.00;102609.25;5068562;28;20033;-80
2023/12/17 04:29:29;;;;;;;11.15;7.85;;;9.50;99.90;;;10.28;100.00;102615.53;5056499;28;20447;-80
2023/12/17 04:31:54;;;;;;;11.15;7.95;;;9.40;99.90;;;10.25;100.00;102611.28;5070126;28;20029;-80
2023/12/17 04:34:20;;;;;;;11.65;7.93;;;9.40;99.90;;;10.20;100.00;102619.97;5071241;28;20431;-80
2023/12/17 04:36:46;;;;;;;11.68;7.88;;;9.40;99.90;;;10.13;100.00;102612.63;5068924;28;20081;-80
2023/12/17 04:39:12;;;;;;;11.25;7.68;;;9.40;99.90;;;10.19;100.00;102621.00;5069285;28;20036;-81
2023/12/17 04:41:39;;;;;;;11.93;7.20;;;9.50;99.90;;;10.26;100.00;102609.41;5067654;28;20509;-80
2023/12/17 04:44:05;;;;;;;9.95;7.07;;;9.50;99.90;;;10.39;100.00;102611.66;5067983;28;20380;-80
2023/12/17 04:46:31;;;;;;;10.95;7.45;;;9.40;99.90;;;10.35;100.00;102624.78;5065314;28;20064;-80
2023/12/17 04:48:58;;;;;;;10.68;7.68;;;9.40;99.90;;;10.31;100.00;102620.66;5068454;28;20063;-79
2023/12/17 04:51:24;;;;;;;10.30;7.53;;;9.40;99.90;;;10.27;100.00;102611.13;5066931;28;20032;-79
2023/12/17 04:53:50;;;;;;;11.88;8.10;;;9.40;99.90;;;10.21;100.00;102604.44;5069923;28;20127;-80
2023/12/17 04:56:17;;;;;;;11.20;8.23;;;9.40;99.90;;;10.32;100.00;102609.59;5067201;28;20037;-80
2023/12/17 04:58:43;;;;;;;10.38;7.85;;;9.40;99.90;;;10.26;100.00;102606.69;5069764;28;20080;-80
2023/12/17 05:01:09;;;;;;;11.75;8.25;;;9.40;99.90;;;10.29;100.00;102614.53;5069331;28;20045;-80
2023/12/17 05:03:36;;;;;;;10.40;7.78;;;9.40;99.90;;;10.26;100.00;102610.28;5069171;28;20040;-80
2023/12/17 05:06:02;;;;;;;11.38;7.57;;;9.40;99.90;;;10.21;100.00;102618.06;5075870;28;20073;-80
2023/12/17 05:08:28;;;;;;;11.48;7.93;;;9.40;99.90;;;10.40;100.00;102610.63;5068795;28;20041;-81
2023/12/17 05:10:54;;;;;;;10.52;7.47;;;9.40;99.90;;;10.29;100.00;102620.84;5068464;28;20053;-80
2023/12/17 05:13:20;;;;;;;10.23;7.60;;;9.40;99.90;;;10.40;100.00;102619.72;5069408;28;20032;-79
2023/12/17 05:15:46;;;;;;;10.85;8.00;;;9.40;99.90;;;10.35;100.00;102616.63;5069076;28;20666;-80
2023/12/17 05:18:11;;;;;;;10.80;7.90;;;9.40;99.90;;;10.32;100.00;102625.97;5067809;28;20349;-79
2023/12/17 05:20:37;;;;;;;12.65;7.95;;;9.40;99.90;;;10.58;100.00;102608.66;5035292;28;20480;-80
2023/12/17 05:23:03;;;;;;;10.35;7.55;;;9.40;99.90;;;10.43;100.00;102615.78;5068797;28;20032;-80
2023/12/17 05:25:29;;;;;;;11.60;8.25;;;9.40;99.90;;;10.52;100.00;102622.97;5044031;28;20024;-80
2023/12/17 05:27:55;;;;;;;11.13;7.93;;;9.40;99.90;;;10.46;100.00;102629.97;5070899;28;20036;-79
2023/12/17 05:30:22;;;;;;;11.40;7.80;;;9.40;99.90;;;10.30;100.00;102616.22;5055294;28;20333;-80
2023/12/17 05:32:49;;;;;;;11.05;7.82;;;9.40;99.90;;;10.46;100.00;102621.78;5073194;28;20032;-80
2023/12/17 05:35:15;;;;;;;12.23;8.40;;;9.40;99.90;;;10.43;100.00;102638.47;5069223;28;20098;-80
2023/12/17 05:37:40;;;;;;;12.30;8.07;;;9.40;99.90;;;10.21;100.00;102618.06;5071685;28;20391;-79
2023/12/17 05:40:08;;;;;;;10.70;7.90;;;9.40;99.90;;;10.31;100.00;102607.91;5072015;28;20480;-80
2023/12/17 05:42:34;;;;;;;12.13;8.30;;;9.40;99.90;;;10.20;100.00;102616.38;5076784;28;20047;-79
2023/12/17 05:45:00;;;;;;;11.77;8.07;;;9.40;99.90;;;10.34;100.00;102601.22;5072915;28;20079;-80
2023/12/17 05:47:26;;;;;;;11.40;7.88;;;9.40;99.90;;;10.20;100.00;102605.47;5071852;28;20055;-80
2023/12/17 05:49:52;;;;;;;13.25;8.82;;;9.40;99.90;;;10.25;100.00;102613.16;5071518;28;20041;-80
2023/12/17 05:52:18;;;;;;;11.73;8.43;;;9.40;99.90;;;10.29;100.00;102614.53;5073493;28;20526;-79
2023/12/17 05:54:46;;;;;;;12.18;8.65;;;9.40;99.90;;;10.39;100.00;102611.66;5072219;28;20040;-80
2023/12/17 05:57:12;;;;;;;13.13;8.68;;;9.40;99.90;;;10.35;100.00;102609.25;5073177;28;20123;-80
2023/12/17 05:59:37;;;;;;;11.18;8.45;;;9.30;99.90;;;10.26;100.00;102615.72;5074661;28;20528;-81
2023/12/17 06:02:03;;;;;;;12.57;8.40;;;9.40;99.90;;;10.30;100.00;102616.22;5073145;28;20078;-80
2023/12/17 06:04:29;;;;;;;12.15;8.75;;;9.30;99.90;;;10.32;100.00;102620.50;5072398;28;20045;-82
2023/12/17 06:06:55;;;;;;;11.80;8.43;;;9.40;99.90;;;10.27;100.00;102613.84;5067983;28;20156;-79
2023/12/17 06:09:23;;;;;;;11.77;8.70;;;9.40;99.90;;;10.29;100.00;102619.97;5072310;28;20048;-79
2023/12/17 06:11:49;;;;;;;12.00;8.23;;;9.40;99.90;;;10.25;100.00;102613.16;5072430;28;20107;-79
2023/12/17 06:14:17;;;;;;;12.27;8.48;;;9.40;99.90;;;10.31;100.00;102624.25;5077046;28;20113;-80
2023/12/17 06:16:46;;;;;;;11.38;8.48;;;9.30;99.90;;;10.35;100.00;102639.28;5064416;28;20044;-81
2023/12/17 06:19:12;;;;;;;11.10;8.20;;;9.30;99.90;;;10.31;100.00;102634.31;5073759;28;20469;-81
2023/12/17 06:21:38;;;;;;;11.57;8.40;;;9.30;99.90;;;10.37;100.00;102630.94;5058322;28;20083;-80
2023/12/17 06:24:04;;;;;;;13.18;9.15;;;9.30;99.90;;;10.35;100.00;102636.53;5074063;28;20040;-81
2023/12/17 06:26:31;;;;;;;13.13;9.20;;;9.30;99.90;;;10.22;100.00;102633.47;5070926;28;20029;-80
2023/12/17 06:28:57;;;;;;;12.55;9.15;;;9.30;99.90;;;10.31;100.00;102627.00;5072348;28;20465;-81
2023/12/17 06:31:24;;;;;;;13.45;9.35;;;9.30;99.90;;;10.23;100.00;102626.97;5079187;28;20045;-81
2023/12/17 06:33:53;;;;;;;14.10;9.35;;;9.30;99.90;;;10.28;100.00;102623.72;5071713;28;20380;-81
2023/12/17 06:36:20;;;;;;;13.90;9.15;;;9.30;99.90;;;10.31;100.00;102628.84;5041626;28;20048;-81
2023/12/17 06:38:46;;;;;;;13.43;9.40;;;9.30;99.90;;;10.42;100.00;102628.59;5072339;28;20033;-80
2023/12/17 06:41:12;;;;;;;12.38;9.18;;;9.30;99.90;;;10.43;100.00;102633.03;5070625;28;20036;-80
2023/12/17 06:43:41;;;;;;;13.82;9.20;;;9.30;99.90;;;10.39;100.00;102634.34;5070159;28;20529;-80
2023/12/17 06:46:07;;;;;;;14.63;9.85;;;9.30;99.90;;;10.37;100.00;102641.84;5069698;28;20032;-81
2023/12/17 06:48:36;;;;;;;13.10;9.48;;;9.30;99.90;;;10.43;100.00;102634.88;5074123;28;20032;-81
2023/12/17 06:51:03;;;;;;;13.07;9.75;;;9.30;99.90;;;10.44;100.00;102636.59;5075172;28;20049;-79
2023/12/17 06:53:29;;;;;;;14.30;10.20;;;9.30;99.90;;;10.45;100.00;102638.28;5070522;28;20036;-80
2023/12/17 06:55:55;;;;;;;14.15;10.27;;;9.30;99.90;;;10.29;100.00;102639.06;5077029;28;20123;-81
2023/12/17 06:58:21;;;;;;;14.10;9.98;;;9.30;99.90;;;10.31;100.00;102642.50;5078565;28;20039;-79
2023/12/17 07:00:47;;;;;;;15.57;10.35;;;9.30;99.90;;;10.26;100.00;102653.06;5075832;28;20032;-79
2023/12/17 07:03:13;;;;;;;15.43;11.13;;;9.30;99.90;;;10.45;100.00;102658.25;5070566;28;20091;-79
2023/12/17 07:05:39;;;;;;;15.57;10.82;;;9.30;99.90;;;10.38;100.00;102649.00;5065280;28;20040;-79
2023/12/17 07:08:05;;;;;;;15.55;10.73;;;9.30;99.90;;;10.41;100.00;102651.44;5072106;28;20040;-79
2023/12/17 07:10:31;;;;;;;14.95;10.68;;;9.30;99.90;;;10.49;100.00;102643.25;5074832;28;20033;-82
2023/12/17 07:12:57;;;;;;;14.65;10.52;;;9.30;99.90;;;10.48;100.00;102641.56;5068740;28;20040;-78
2023/12/17 07:15:23;;;;;;;16.08;11.05;;;9.30;99.90;;;10.38;100.00;102639.97;5035104;28;20060;-79
2023/12/17 07:17:49;;;;;;;17.73;12.48;;;9.30;99.90;;;10.29;100.00;102636.34;5049826;28;20044;-78
2023/12/17 07:20:14;;;;;;;17.33;11.00;;;9.20;99.90;;;10.44;100.00;102652.97;5068608;28;20040;-79
2023/12/17 07:22:40;;;;;;;15.90;11.15;;;9.20;99.90;;;10.40;100.00;102644.28;5068247;28;20047;-78
2023/12/17 07:25:06;;;;;;;17.20;12.15;;;9.20;99.90;;;10.37;100.00;102652.75;5069792;28;20036;-77
2023/12/17 07:27:32;;;;;;;16.25;11.18;;;9.20;99.90;;;10.33;100.00;102649.50;5058475;28;20085;-78
2023/12/17 07:29:58;;;;;;;17.27;12.57;;;9.20;99.90;;;10.30;100.00;102643.50;5046577;28;20395;-79
2023/12/17 07:32:23;;;;;;;17.20;11.77;;;9.30;99.90;;;10.48;100.00;102641.56;5061806;28;20039;-78
2023/12/17 07:34:49;;;;;;;16.98;11.23;;;9.20;99.90;;;10.32;100.00;102641.47;5061182;28;20048;-78
2023/12/17 07:37:15;;;;;;;16.98;12.07;;;9.20;99.90;;;10.41;100.00;102650.56;5061023;28;20041;-79
2023/12/17 07:39:41;;;;;;;17.75;12.20;;;9.20;99.90;;;10.47;100.00;102637.13;5062429;28;20055;-78
2023/12/17 07:42:07;;;;;;;16.88;12.27;;;9.30;99.90;;;10.46;100.00;102640.88;5062384;28;20059;-78
2023/12/17 07:44:32;;;;;;;15.43;11.13;;;9.20;99.90;;;10.19;100.00;102651.00;5061867;28;20044;-78
2023/12/17 07:46:58;;;;;;;16.77;11.85;;;9.20;99.90;;;10.22;100.00;102637.03;5061511;28;20044;-77
2023/12/17 07:49:25;;;;;;;17.27;12.13;;;9.20;99.90;;;10.43;100.00;102643.06;5069006;28;20040;-77
2023/12/17 07:51:52;;;;;;;16.83;11.38;;;9.30;99.90;;;10.33;100.00;102637.72;5069357;28;20041;-77
2023/12/17 07:54:18;;;;;;;18.00;12.40;;;9.30;99.90;;;10.32;100.00;102636.88;5047922;28;20032;-76
2023/12/17 07:56:44;;;;;;;16.15;11.43;;;9.30;99.90;;;10.31;100.00;102632.44;5077307;28;20502;-81
2023/12/17 07:59:09;;;;;;;15.38;10.90;;;9.30;99.90;;;10.30;100.00;102628.00;5058626;28;20145;-79
2023/12/17 08:01:35;;;;;;;15.70;11.25;;;9.30;99.90;;;10.34;100.00;102623.94;5053251;28;20040;-79
2023/12/17 08:04:01;;;;;;;17.70;12.35;;;9.30;99.90;;;10.59;100.00;102631.31;5066275;28;20048;-78
2023/12/17 08:06:27;;;;;;;17.60;11.88;;;9.30;99.90;;;10.39;100.00;102630.75;5067113;28;20036;-78
2023/12/17 08:08:54;;;;;;;14.57;10.90;;;9.30;99.90;;;10.46;100.00;102638.13;5044008;28;20055;-78
2023/12/17 08:11:20;;;;;;;16.30;11.27;;;9.30;99.90;;;10.48;100.00;102641.56;5068679;28;20028;-79
2023/12/17 08:13:48;;;;;;;15.65;11.27;;;9.30;99.90;;;10.47;100.00;102626.19;5062164;28;20037;-79
2023/12/17 08:16:14;;;;;;;15.32;11.00;;;9.30;99.90;;;10.43;100.00;102632.16;5069242;28;20198;-78
2023/12/17 08:18:39;;;;;;;15.77;11.82;;;9.30;99.90;;;10.31;100.00;102639.75;5072264;28;20544;-78
2023/12/17 08:21:05;;;;;;;15.63;11.50;;;9.30;99.90;;;10.32;100.00;102642.34;5070205;28;20036;-77
2023/12/17 08:23:31;;;;;;;16.65;11.30;;;9.30;99.90;;;10.43;100.00;102649.41;5068884;28;20024;-77
2023/12/17 08:25:57;;;;;;;15.57;11.60;;;9.30;99.90;;;10.42;100.00;102636.78;5040715;28;20401;-76
2023/12/17 08:28:24;;;;;;;17.23;11.43;;;9.30;99.90;;;10.54;100.00;102652.81;5068355;28;20085;-77
2023/12/17 08:30:50;;;;;;;15.50;11.40;;;9.40;99.90;;;10.40;100.00;102649.72;5052553;28;20029;-76
2023/12/17 08:33:16;;;;;;;15.32;11.35;;;9.40;99.90;;;10.30;100.00;102655.28;5039333;28;20507;-78
2023/12/17 08:35:45;;;;;;;15.88;11.18;;;9.30;99.90;;;10.43;100.00;102653.97;5068542;28;20036;-77
2023/12/17 08:38:11;;;;;;;14.65;10.45;;;9.30;99.90;;;10.52;100.00;102660.31;5069468;28;20067;-77
2023/12/17 08:40:40;;;;;;;14.90;10.50;;;9.40;99.90;;;10.48;100.00;102657.94;5043794;28;20024;-77
2023/12/17 08:43:07;;;;;;;15.18;11.05;;;9.40;99.90;;;10.56;100.00;102658.97;5077094;28;20495;-77
2023/12/17 08:45:35;;;;;;;14.80;10.52;;;9.40;99.90;;;10.50;100.00;102658.63;5070161;28;20033;-77
2023/12/17 08:48:01;;;;;;;16.15;11.70;;;9.40;99.90;;;10.58;100.00;102652.31;5064382;28;20040;-77
2023/12/17 08:50:28;;;;;;;14.80;11.23;;;9.40;99.90;;;10.40;100.00;102647.00;5037639;28;20116;-77
2023/12/17 08:52:54;;;;;;;15.55;11.68;;;9.40;99.90;;;10.60;100.00;102644.81;5067543;28;20081;-77
2023/12/17 08:55:22;;;;;;;15.80;11.55;;;9.40;99.90;;;10.35;100.00;102641.16;5072981;28;20044;-76
2023/12/17 08:57:47;;;;;;;16.92;11.00;;;9.40;99.90;;;10.54;100.00;102650.09;5037541;28;20040;-77
2023/12/17 09:00:16;;;;;;;15.88;11.43;;;9.40;99.90;;;10.55;100.00;102659.97;5068652;28;20059;-80
2023/12/17 09:02:42;;;;;;;15.82;11.38;;;9.40;99.90;;;10.55;100.00;102659.97;5086220;28;20044;-81
2023/12/17 09:05:08;;;;;;;15.65;11.65;;;9.40;99.90;;;10.64;100.00;102661.72;5065887;28;20038;-81
2023/12/17 09:07:34;;;;;;;16.52;12.40;;;9.40;99.90;;;10.43;100.00;102643.94;5059107;28;20033;-78
2023/12/17 09:10:01;;;;;;;16.35;11.80;;;9.40;99.90;;;10.54;100.00;102655.53;5035192;28;20033;-78
2023/12/17 09:12:26;;;;;;;17.88;12.48;;;9.40;99.90;;;10.55;100.00;102646.34;5049588;28;20041;-81
2023/12/17 09:14:52;;;;;;;17.73;11.50;;;9.50;99.90;;;10.54;100.00;102636.44;5051603;28;20048;-82
2023/12/17 09:17:18;;;;;;;16.90;11.35;;;9.50;99.90;;;10.55;100.00;102628.09;5051928;28;20048;-78
2023/12/17 09:19:44;;;;;;;15.57;11.15;;;9.50;99.90;;;10.53;100.00;102626.53;5047324;28;20041;-79
2023/12/17 09:22:10;;;;;;;18.42;12.35;;;9.60;99.90;;;10.54;100.00;102631.84;5049230;28;20630;-78
2023/12/17 09:24:36;;;;;;;16.52;11.05;;;9.60;99.90;;;10.41;100.00;102623.28;5056367;28;20052;-78
2023/12/17 09:27:05;;;;;;;15.95;10.63;;;9.70;99.90;;;10.39;100.00;102626.16;5050767;28;20045;-76
2023/12/17 09:29:31;;;;;;;16.52;10.80;;;9.70;99.90;;;10.80;100.00;102622.66;5057541;28;20029;-79
2023/12/17 09:31:57;;;;;;;15.90;11.23;;;9.80;99.90;;;10.69;100.00;102634.78;5066785;28;20495;-81
2023/12/17 09:34:22;;;;;;;16.02;11.32;;;9.80;99.90;;;10.30;100.00;102619.81;5054748;28;20122;-78
2023/12/17 09:36:48;;;;;;;17.98;12.15;;;9.80;99.90;;;10.60;100.00;102616.66;5041909;28;22120;-78
2023/12/17 09:39:14;;;;;;;17.00;11.35;;;9.80;99.90;;;10.44;100.00;102622.94;5053310;28;20037;-78
2023/12/17 09:41:42;;;;;;;19.02;11.48;;;9.70;99.90;;;10.53;100.00;102607.44;5059526;28;20035;-78
2023/12/17 09:44:08;;;;;;;17.40;11.60;;;9.80;99.90;;;10.57;100.00;102619.72;5060144;28;20045;-77
2023/12/17 09:46:35;;;;;;;18.00;12.70;;;9.80;99.90;;;10.47;100.00;102628.94;5054870;28;20047;-76
2023/12/17 09:49:02;;;;;;;17.83;11.35;;;9.80;99.90;;;10.63;100.00;102621.81;5056031;28;20037;-78
2023/12/17 09:51:29;;;;;;;16.92;11.00;;;9.70;99.90;;;10.52;100.00;102630.28;5056157;28;20072;-76
2023/12/17 09:53:57;;;;;;;17.95;11.63;;;9.70;99.90;;;10.42;100.00;102600.44;5056894;28;20045;-79
2023/12/17 09:56:23;;;;;;;17.13;11.30;;;9.80;99.90;;;10.45;100.00;102611.88;5056461;28;20044;-80
2023/12/17 09:58:49;;;;;;;16.60;11.40;;;9.70;99.90;;;10.68;100.00;102611.22;5061378;28;20033;-79
2023/12/17 10:01:15;;;;;;;17.00;11.02;;;9.80;99.90;;;10.72;100.00;102604.41;5065007;28;20037;-77